Time,TemperatureF,DewpointF,PressureIn,WindDirection,WindDirectionDegrees,WindSpeedMPH,WindSpeedGustMPH,Humidity,HourlyPrecipIn,Conditions,Clouds,dailyrainin,SoftwareType,DateUTC
2013-09-10 00:12:00,67.0,-99.9,-100.00,West,263,5.0,6.0,-999,-99.99,,,-99.99,,2013-09-10 07:12:00,
2013-09-10 01:12:00,67.0,-99.9,-100.00,West,276,6.0,7.0,-999,-99.99,,,-99.99,,2013-09-10 08:12:00,
2013-09-10 02:12:00,69.0,-99.9,-100.00,WNW,297,7.0,10.0,-999,-99.99,,,-99.99,,2013-09-10 09:12:00,
2013-09-10 03:13:00,67.0,-99.9,-100.00,WNW,294,7.0,8.0,-999,-99.99,,,-99.99,,2013-09-10 10:13:00,
2013-09-10 04:12:00,67.0,-99.9,-100.00,WNW,284,7.0,8.0,-999,-99.99,,,-99.99,,2013-09-10 11:12:00,
2013-09-10 05:12:00,63.0,-99.9,-100.00,WNW,303,6.0,8.0,-999,-99.99,,,-99.99,,2013-09-10 12:12:00,
2013-09-10 06:11:00,62.0,-99.9,-100.00,West,277,6.0,7.0,-999,-99.99,,,-99.99,,2013-09-10 13:11:00,
2013-09-10 07:11:00,62.0,-99.9,-100.00,WNW,284,6.0,8.0,-999,-99.99,,,-99.99,,2013-09-10 14:11:00,
2013-09-10 08:12:00,62.0,-99.9,-100.00,WNW,303,5.0,6.0,-999,-99.99,,,-99.99,,2013-09-10 15:12:00,
2013-09-10 09:13:00,70.0,-99.9,-100.00,NW,307,10.0,14.0,-999,-99.99,,,-99.99,,2013-09-10 16:13:00,
2013-09-10 10:12:00,77.0,-99.9,-100.00,NW,312,10.0,15.0,-999,-99.99,,,-99.99,,2013-09-10 17:12:00,
2013-09-10 11:12:00,80.0,-99.9,-100.00,NW,324,10.0,13.0,-999,-99.99,,,-99.99,,2013-09-10 18:12:00,
2013-09-10 12:12:00,83.0,-99.9,-100.00,NW,323,9.0,15.0,-999,-99.99,,,-99.99,,2013-09-10 19:12:00,
2013-09-10 13:12:00,88.0,-99.9,-100.00,NW,318,10.0,18.0,-999,-99.99,,,-99.99,,2013-09-10 20:12:00,
2013-09-10 14:12:00,89.0,-99.9,-100.00,North,349,6.0,12.0,-999,-99.99,,,-99.99,,2013-09-10 21:12:00,
2013-09-10 15:14:00,92.0,-99.9,-100.00,NNE,26,5.0,12.0,-999,-99.99,,,-99.99,,2013-09-10 22:14:00,
2013-09-10 16:13:00,92.0,-99.9,-100.00,North,355,3.0,8.0,-999,-99.99,,,-99.99,,2013-09-10 23:13:00,
2013-09-10 17:11:00,93.0,-99.9,-100.00,North,6,6.0,12.0,-999,-99.99,,,-99.99,,2013-09-11 00:11:00,
2013-09-10 18:11:00,92.0,-99.9,-100.00,NNE,32,7.0,18.0,-999,-99.99,,,-99.99,,2013-09-11 01:11:00,
2013-09-10 19:11:00,91.0,-99.9,-100.00,NNE,12,9.0,13.0,-999,-99.99,,,-99.99,,2013-09-11 02:11:00,
2013-09-10 20:12:00,85.0,-99.9,-100.00,NW,310,7.0,10.0,-999,-99.99,,,-99.99,,2013-09-11 03:12:00,
2013-09-10 21:14:00,80.0,-99.9,-100.00,WNW,302,8.0,10.0,-999,-99.99,,,-99.99,,2013-09-11 04:14:00,
2013-09-10 22:13:00,77.0,-99.9,-100.00,NW,311,6.0,9.0,-999,-99.99,,,-99.99,,2013-09-11 05:13:00,
2013-09-10 23:12:00,75.0,-99.9,-100.00,WNW,297,6.0,8.0,-999,-99.99,,,-99.99,,2013-09-11 06:12:00,